Time;durP1;ratioP1;P1;durP2;ratioP2;P2;SDS_P1;SDS_P2;PMS_P1;PMS_P2;Temp;Humidity;BMP_temperature;BMP_pressure;BME280_temperature;BME280_humidity;BME280_pressure;Samples;Min_cycle;Max_cycle;Signal;HPM_P1;HPM_P2
2021/03/23 00:00:47;;;;;;;21.73;12.57;;;7.80;72.40;;;;;;4989825;28;20981;-40
2021/03/23 00:03:38;;;;;;;17.23;11.57;;;7.80;72.40;;;;;;4995499;28;20453;-40
2021/03/23 00:06:07;;;;;;;19.20;12.53;;;7.80;72.60;;;;;;4991413;28;20919;-40
2021/03/23 00:08:40;;;;;;;20.90;13.17;;;7.80;72.60;;;;;;5005155;28;20532;-40
2021/03/23 00:11:20;;;;;;;19.60;12.50;;;7.80;72.70;;;;;;4991274;28;20458;-40
2021/03/23 00:13:48;;;;;;;25.87;12.90;;;7.80;72.90;;;;;;4990003;28;20449;-40
2021/03/23 00:16:18;;;;;;;25.43;12.90;;;7.80;73.00;;;;;;4991499;28;20481;-40
2021/03/23 00:18:46;;;;;;;22.07;13.87;;;7.80;73.10;;;;;;4988114;28;20946;-40
2021/03/23 00:21:13;;;;;;;20.23;12.40;;;7.80;73.20;;;;;;4989454;28;20462;-40
2021/03/23 00:23:39;;;;;;;26.47;13.67;;;7.90;73.10;;;;;;4991807;28;20817;-40
2021/03/23 00:26:07;;;;;;;24.80;13.50;;;7.80;73.00;;;;;;5006901;28;20458;-40
2021/03/23 00:28:33;;;;;;;25.40;12.67;;;7.80;73.10;;;;;;4990788;28;20964;-40
2021/03/23 00:31:00;;;;;;;27.80;13.77;;;7.70;73.20;;;;;;4991633;28;20498;-40
2021/03/23 00:33:27;;;;;;;22.30;13.03;;;7.80;73.20;;;;;;5003397;28;20469;-40
2021/03/23 00:35:57;;;;;;;20.30;13.00;;;7.70;73.20;;;;;;4989193;28;20504;-40
2021/03/23 00:38:24;;;;;;;17.30;12.47;;;7.70;73.30;;;;;;5003613;28;20457;-40
2021/03/23 00:40:51;;;;;;;23.33;12.63;;;7.70;73.30;;;;;;5005060;28;20489;-40
2021/03/23 00:43:18;;;;;;;17.33;11.97;;;7.70;73.10;;;;;;4989365;28;20457;-40
2021/03/23 00:45:45;;;;;;;20.63;12.97;;;7.70;73.00;;;;;;5003317;28;20463;-42
2021/03/23 00:48:14;;;;;;;21.40;11.73;;;7.70;73.00;;;;;;4991945;28;20833;-42
2021/03/23 00:50:41;;;;;;;20.27;11.17;;;7.70;73.10;;;;;;4990024;28;20815;-43
2021/03/23 00:53:09;;;;;;;21.07;13.07;;;7.80;73.00;;;;;;4990397;28;20827;-43
2021/03/23 00:55:35;;;;;;;24.10;13.10;;;7.80;72.80;;;;;;4988903;28;20461;-42
2021/03/23 00:58:02;;;;;;;22.57;12.13;;;7.70;72.90;;;;;;4989517;28;20475;-42
2021/03/23 01:00:29;;;;;;;31.53;13.77;;;7.70;72.90;;;;;;4989021;28;20477;-41
2021/03/23 01:02:55;;;;;;;21.57;13.77;;;7.80;72.70;;;;;;4990771;28;20580;-42
2021/03/23 01:05:27;;;;;;;21.73;12.40;;;7.70;72.80;;;;;;5005332;28;20465;-43
2021/03/23 01:07:53;;;;;;;24.17;14.27;;;7.70;72.90;;;;;;4990167;28;20965;-42
2021/03/23 01:10:22;;;;;;;21.07;12.93;;;7.70;73.00;;;;;;4988022;28;20560;-41
2021/03/23 01:12:49;;;;;;;22.63;12.30;;;7.70;73.00;;;;;;4988029;28;20552;-42
2021/03/23 01:15:19;;;;;;;19.73;11.97;;;7.60;73.10;;;;;;4989090;28;20465;-41
2021/03/23 01:17:45;;;;;;;20.50;12.23;;;7.60;73.30;;;;;;4989069;28;20993;-43
2021/03/23 01:20:14;;;;;;;18.70;12.93;;;7.70;73.30;;;;;;4987989;28;20497;-42
2021/03/23 01:22:40;;;;;;;30.60;13.90;;;7.70;73.30;;;;;;4988140;28;20819;-42
2021/03/23 01:25:08;;;;;;;24.03;13.50;;;7.70;73.50;;;;;;4988030;28;20458;-42
2021/03/23 01:27:34;;;;;;;26.27;13.40;;;7.70;73.50;;;;;;4990464;28;20454;-43
2021/03/23 01:30:01;;;;;;;23.43;13.50;;;7.60;73.60;;;;;;5003812;28;20468;-42
2021/03/23 01:32:27;;;;;;;31.47;15.90;;;7.60;73.70;;;;;;4989532;28;20473;-43
2021/03/23 01:34:53;;;;;;;22.90;14.47;;;7.60;73.60;;;;;;4988669;28;20476;-42
2021/03/23 01:37:20;;;;;;;24.27;14.10;;;7.60;73.70;;;;;;4989617;28;20465;-42
2021/03/23 01:39:46;;;;;;;24.57;13.27;;;7.60;73.70;;;;;;5004187;28;20565;-42
2021/03/23 01:42:15;;;;;;;27.47;13.47;;;7.60;73.80;;;;;;4988409;28;20472;-42
2021/03/23 01:44:43;;;;;;;25.20;12.70;;;7.60;73.80;;;;;;4988297;28;20536;-42
2021/03/23 01:47:10;;;;;;;22.73;13.57;;;7.60;73.90;;;;;;4987526;28;20462;-41
2021/03/23 01:49:38;;;;;;;20.60;13.00;;;7.60;74.00;;;;;;4987829;28;20540;-42
2021/03/23 01:52:18;;;;;;;34.70;13.63;;;7.50;74.10;;;;;;4991771;28;20935;-40
2021/03/23 01:55:00;;;;;;;22.63;13.67;;;7.50;74.10;;;;;;4987685;28;20476;-40
2021/03/23 01:57:29;;;;;;;22.37;13.70;;;7.50;74.30;;;;;;5001639;28;20468;-39
2021/03/23 01:59:57;;;;;;;22.73;13.50;;;7.60;74.20;;;;;;4985745;28;20571;-39
2021/03/23 02:02:27;;;;;;;23.43;13.57;;;7.50;74.30;;;;;;4989010;28;20540;-39
2021/03/23 02:05:09;;;;;;;30.60;15.10;;;7.50;74.30;;;;;;4988323;28;20453;-39
2021/03/23 02:07:39;;;;;;;23.03;14.37;;;7.50;74.40;;;;;;4987142;28;20560;-39
2021/03/23 02:10:06;;;;;;;22.87;14.27;;;7.50;74.50;;;;;;4988521;28;20585;-39
2021/03/23 02:12:32;;;;;;;24.40;13.80;;;7.50;74.60;;;;;;4985563;28;20501;-39
2021/03/23 02:15:00;;;;;;;23.90;14.90;;;7.40;74.60;;;;;;4982245;28;20560;-39
2021/03/23 02:17:37;;;;;;;26.37;14.57;;;7.50;74.60;;;;;;4986149;28;20488;-39
2021/03/23 02:20:17;;;;;;;28.43;14.60;;;7.40;74.60;;;;;;4986843;28;20519;-39
2021/03/23 02:22:46;;;;;;;24.50;14.43;;;7.40;74.40;;;;;;4987638;28;20564;-39
2021/03/23 02:25:24;;;;;;;24.10;13.67;;;7.40;74.50;;;;;;4981593;28;20469;-39
2021/03/23 02:27:52;;;;;;;25.90;14.43;;;7.40;74.60;;;;;;4986425;28;20461;-39
2021/03/23 02:30:41;;;;;;;28.40;15.60;;;7.40;74.60;;;;;;4983931;28;20488;-40
2021/03/23 02:33:08;;;;;;;25.33;13.80;;;7.40;74.70;;;;;;5001982;28;20476;-39
2021/03/23 02:35:36;;;;;;;25.73;14.23;;;7.40;74.80;;;;;;5000280;28;20464;-39
2021/03/23 02:38:03;;;;;;;21.67;14.40;;;7.40;74.80;;;;;;4984499;28;20813;-39
2021/03/23 02:40:30;;;;;;;28.80;16.33;;;7.40;74.80;;;;;;4988190;28;20481;-43
2021/03/23 02:42:57;;;;;;;32.17;15.00;;;7.40;74.80;;;;;;4998026;28;20467;-43
2021/03/23 02:45:24;;;;;;;26.63;14.80;;;7.40;74.80;;;;;;4986567;28;20472;-43
2021/03/23 02:47:51;;;;;;;29.10;14.80;;;7.40;74.90;;;;;;4987027;28;20560;-43
2021/03/23 02:50:19;;;;;;;26.83;15.30;;;7.40;75.00;;;;;;4985896;28;20492;-42
2021/03/23 02:52:45;;;;;;;25.17;14.50;;;7.40;75.00;;;;;;4984224;28;20527;-43
2021/03/23 02:55:12;;;;;;;26.87;15.43;;;7.40;75.10;;;;;;4983912;28;20467;-42
2021/03/23 02:57:38;;;;;;;24.57;14.27;;;7.40;75.20;;;;;;4986152;28;20817;-43
2021/03/23 03:00:07;;;;;;;23.67;15.33;;;7.40;75.20;;;;;;4984980;28;20591;-42
2021/03/23 03:02:34;;;;;;;22.67;14.27;;;7.40;75.30;;;;;;4999409;28;20462;-44
2021/03/23 03:05:01;;;;;;;26.03;14.10;;;7.40;75.30;;;;;;4985225;28;20465;-44
2021/03/23 03:07:27;;;;;;;27.70;14.90;;;7.40;75.30;;;;;;4984846;28;20453;-43
2021/03/23 03:09:53;;;;;;;33.90;16.47;;;7.40;75.40;;;;;;4986008;28;20839;-42
2021/03/23 03:12:19;;;;;;;28.23;16.17;;;7.30;75.30;;;;;;4984068;28;20474;-43
2021/03/23 03:14:46;;;;;;;28.07;14.57;;;7.30;75.30;;;;;;4986580;28;20837;-43
2021/03/23 03:17:12;;;;;;;28.53;14.23;;;7.40;75.30;;;;;;4987606;28;20491;-44
2021/03/23 03:19:38;;;;;;;26.40;15.00;;;7.40;75.30;;;;;;4990556;28;20496;-43
2021/03/23 03:22:05;;;;;;;28.17;13.63;;;7.40;74.80;;;;;;4987949;28;20487;-43
2021/03/23 03:24:31;;;;;;;26.60;14.50;;;7.30;74.80;;;;;;5004480;28;20458;-39
2021/03/23 03:26:57;;;;;;;21.03;13.67;;;7.30;74.70;;;;;;5004920;28;20548;-39
2021/03/23 03:29:23;;;;;;;29.77;14.03;;;7.40;74.50;;;;;;4991640;28;20869;-39
2021/03/23 03:31:50;;;;;;;29.20;15.00;;;7.30;74.30;;;;;;4988175;28;20465;-40
2021/03/23 03:34:16;;;;;;;25.30;13.80;;;7.30;74.30;;;;;;4989648;28;20465;-39
2021/03/23 03:36:42;;;;;;;26.57;14.87;;;7.30;74.20;;;;;;5006459;28;20477;-40
2021/03/23 03:39:09;;;;;;;27.07;13.90;;;7.40;73.90;;;;;;4987625;28;20463;-40
2021/03/23 03:41:38;;;;;;;23.17;13.90;;;7.40;73.50;;;;;;4989234;28;20509;-40
2021/03/23 03:44:04;;;;;;;26.17;13.67;;;7.40;73.40;;;;;;4986379;28;20662;-40
2021/03/23 03:46:31;;;;;;;25.63;12.27;;;7.40;73.50;;;;;;4986936;28;20815;-40
2021/03/23 03:48:57;;;;;;;25.67;13.87;;;7.40;73.70;;;;;;5003728;28;20466;-40
2021/03/23 03:51:23;;;;;;;20.23;12.70;;;7.40;74.00;;;;;;4989663;28;20445;-40
2021/03/23 03:53:50;;;;;;;24.80;13.93;;;7.40;74.10;;;;;;4991513;28;20473;-40
2021/03/23 03:56:18;;;;;;;23.20;13.00;;;7.30;74.10;;;;;;4989831;28;20842;-40
2021/03/23 03:58:45;;;;;;;27.10;14.60;;;7.30;74.20;;;;;;5001950;28;20507;-40
2021/03/23 04:01:12;;;;;;;22.20;14.00;;;7.30;74.20;;;;;;5004285;28;20544;-40
2021/03/23 04:03:38;;;;;;;28.60;14.43;;;7.40;74.20;;;;;;5004294;28;20464;-40
2021/03/23 04:06:05;;;;;;;27.17;13.17;;;7.40;74.10;;;;;;4988869;28;20822;-40
2021/03/23 04:08:33;;;;;;;24.37;14.20;;;7.40;73.70;;;;;;4989223;28;20462;-40
2021/03/23 04:11:04;;;;;;;23.43;14.17;;;7.40;73.60;;;;;;4987480;28;20469;-40
2021/03/23 04:13:31;;;;;;;27.27;14.37;;;7.40;73.60;;;;;;5005389;28;20469;-40
2021/03/23 04:15:59;;;;;;;24.80;13.30;;;7.40;73.50;;;;;;4989099;28;20487;-40
2021/03/23 04:18:28;;;;;;;25.73;14.80;;;7.30;73.50;;;;;;4991461;28;20469;-40
2021/03/23 04:20:57;;;;;;;20.87;14.33;;;7.30;73.50;;;;;;4988897;28;20489;-40
2021/03/23 04:23:31;;;;;;;23.80;12.83;;;7.30;73.50;;;;;;4991995;28;21040;-40
2021/03/23 04:25:58;;;;;;;24.03;13.60;;;7.30;73.60;;;;;;5005309;28;20457;-40
2021/03/23 04:28:24;;;;;;;26.47;13.40;;;7.40;73.40;;;;;;4989936;28;20466;-40
2021/03/23 04:30:51;;;;;;;24.70;13.30;;;7.40;73.30;;;;;;4989328;28;20727;-40
2021/03/23 04:33:20;;;;;;;24.07;12.33;;;7.30;73.30;;;;;;5006889;28;20501;-40
2021/03/23 04:35:50;;;;;;;27.83;14.53;;;7.30;73.40;;;;;;4987991;28;20524;-40
2021/03/23 04:38:23;;;;;;;24.33;14.30;;;7.30;73.30;;;;;;4989952;28;20961;-40
2021/03/23 04:40:50;;;;;;;22.57;13.57;;;7.30;73.20;;;;;;4987113;28;20485;-40
2021/03/23 04:43:21;;;;;;;25.80;13.37;;;7.30;73.20;;;;;;4989668;28;20449;-40
2021/03/23 04:45:48;;;;;;;22.10;13.77;;;7.30;73.30;;;;;;4986193;28;20461;-40
2021/03/23 04:48:14;;;;;;;30.87;15.30;;;7.40;72.90;;;;;;4991162;28;20465;-40
2021/03/23 04:50:42;;;;;;;32.40;14.03;;;7.30;72.80;;;;;;4990397;28;20527;-40
2021/03/23 04:53:27;;;;;;;23.33;12.63;;;7.40;72.70;;;;;;4988457;28;20472;-40
2021/03/23 04:55:54;;;;;;;24.13;13.67;;;7.40;72.50;;;;;;5000637;28;20849;-40
2021/03/23 04:58:23;;;;;;;25.80;13.10;;;7.40;72.40;;;;;;4986881;28;20457;-40
2021/03/23 05:00:50;;;;;;;27.33;14.00;;;7.40;72.40;;;;;;4988421;28;21001;-40
2021/03/23 05:03:32;;;;;;;29.63;14.60;;;7.40;72.20;;;;;;4989094;28;20461;-40
2021/03/23 05:06:07;;;;;;;24.73;12.43;;;7.30;72.30;;;;;;4987529;28;20890;-40
2021/03/23 05:08:35;;;;;;;22.93;11.07;;;7.30;72.20;;;;;;5005438;28;20462;-40
2021/03/23 05:11:02;;;;;;;23.23;13.17;;;7.40;72.00;;;;;;4988475;28;21073;-40
2021/03/23 05:13:29;;;;;;;29.67;13.57;;;7.40;71.90;;;;;;4990431;28;21022;-40
2021/03/23 05:15:55;;;;;;;23.80;12.40;;;7.40;71.70;;;;;;4989663;28;20889;-40
2021/03/23 05:18:22;;;;;;;29.30;14.57;;;7.40;71.80;;;;;;4989158;28;20476;-40
2021/03/23 05:20:48;;;;;;;23.60;12.67;;;7.40;71.70;;;;;;5003059;28;20491;-40
2021/03/23 05:23:15;;;;;;;21.50;12.80;;;7.30;71.70;;;;;;4984029;28;20868;-40
2021/03/23 05:25:42;;;;;;;25.73;13.60;;;7.30;71.70;;;;;;4987477;28;20464;-40
2021/03/23 05:28:09;;;;;;;25.20;14.23;;;7.30;71.60;;;;;;4987609;28;20457;-40
2021/03/23 05:30:37;;;;;;;22.40;12.70;;;7.30;71.20;;;;;;4988834;28;20516;-40
2021/03/23 05:33:05;;;;;;;28.83;13.20;;;7.30;71.30;;;;;;5004913;28;20453;-40
2021/03/23 05:35:31;;;;;;;27.27;14.20;;;7.20;71.30;;;;;;4988476;28;20792;-40
2021/03/23 05:37:58;;;;;;;24.60;13.60;;;7.20;71.20;;;;;;4989553;28;20471;-40
2021/03/23 05:40:32;;;;;;;26.73;14.17;;;7.30;71.20;;;;;;4984794;28;20485;-40
2021/03/23 05:43:20;;;;;;;36.10;16.70;;;7.30;71.10;;;;;;4985645;28;20524;-40
2021/03/23 05:45:47;;;;;;;27.90;15.47;;;7.30;71.00;;;;;;4985842;28;20468;-40
2021/03/23 05:48:18;;;;;;;30.57;16.93;;;7.30;70.90;;;;;;4987871;28;21151;-40
2021/03/23 05:51:11;;;;;;;26.37;13.77;;;7.30;71.00;;;;;;4988274;28;20475;-40
2021/03/23 05:54:03;;;;;;;23.80;13.13;;;7.30;70.90;;;;;;5001746;28;20781;-39
2021/03/23 05:56:34;;;;;;;25.23;14.53;;;7.30;71.10;;;;;;4985390;28;20485;-39
2021/03/23 05:59:16;;;;;;;26.23;16.10;;;7.30;71.10;;;;;;5003173;28;20472;-39
2021/03/23 06:01:53;;;;;;;21.63;14.40;;;7.30;71.20;;;;;;4988273;28;20817;-39
2021/03/23 06:04:30;;;;;;;26.40;14.40;;;7.40;71.00;;;;;;4989635;28;20484;-39
2021/03/23 06:07:05;;;;;;;28.67;14.07;;;7.30;70.70;;;;;;4988186;28;20852;-39
2021/03/23 06:09:35;;;;;;;30.60;15.60;;;7.30;70.60;;;;;;5005220;28;20859;-39
2021/03/23 06:12:29;;;;;;;25.93;13.90;;;7.40;70.80;;;;;;4988344;28;20923;-39
2021/03/23 06:15:13;;;;;;;30.03;14.80;;;7.40;70.80;;;;;;4989330;28;20533;-39
2021/03/23 06:17:57;;;;;;;30.43;14.87;;;7.40;70.80;;;;;;4987195;28;20481;-39
2021/03/23 06:20:36;;;;;;;24.90;15.97;;;7.40;70.80;;;;;;4986527;28;20967;-39
2021/03/23 06:23:21;;;;;;;24.87;14.67;;;7.30;70.80;;;;;;4986431;28;20532;-39
2021/03/23 06:25:59;;;;;;;28.87;15.30;;;7.40;70.80;;;;;;4988333;28;20472;-39
2021/03/23 06:28:33;;;;;;;23.60;13.90;;;7.40;70.70;;;;;;4986073;28;20964;-39
2021/03/23 06:31:58;;;;;;;27.10;15.37;;;7.40;70.70;;;;;;4987062;28;20465;-39
2021/03/23 06:34:29;;;;;;;30.20;16.17;;;7.40;70.70;;;;;;4986468;28;20837;-39
2021/03/23 06:36:56;;;;;;;29.80;15.67;;;7.50;70.60;;;;;;4987563;28;20463;-39
2021/03/23 06:39:22;;;;;;;29.70;15.07;;;7.50;70.50;;;;;;4987647;28;20453;-39
2021/03/23 06:41:58;;;;;;;30.97;16.03;;;7.50;70.40;;;;;;4988942;28;20484;-39
2021/03/23 06:44:35;;;;;;;30.17;15.73;;;7.50;70.30;;;;;;4987673;28;20467;-39
2021/03/23 06:47:03;;;;;;;27.80;15.63;;;7.60;70.30;;;;;;5001343;28;20817;-39
2021/03/23 06:49:32;;;;;;;29.13;17.37;;;7.60;70.30;;;;;;4987234;28;20462;-39
2021/03/23 06:52:22;;;;;;;25.17;15.53;;;7.60;70.10;;;;;;4987978;28;20484;-39
2021/03/23 06:55:25;;;;;;;31.47;14.90;;;7.60;70.10;;;;;;4986848;28;20553;-39
2021/03/23 06:57:51;;;;;;;24.47;14.87;;;7.60;69.90;;;;;;4947958;28;20840;-39
2021/03/23 07:00:29;;;;;;;28.90;17.40;;;7.60;69.70;;;;;;4979274;28;20491;-39
2021/03/23 07:03:22;;;;;;;27.20;14.37;;;7.70;69.70;;;;;;4985603;28;20531;-39
2021/03/23 07:05:49;;;;;;;26.93;15.50;;;7.70;69.50;;;;;;4984851;28;20528;-39
2021/03/23 07:08:20;;;;;;;24.40;14.00;;;7.70;69.40;;;;;;4983902;28;20457;-39
2021/03/23 07:10:52;;;;;;;23.93;13.77;;;7.70;69.40;;;;;;4986894;28;20476;-39
2021/03/23 07:13:30;;;;;;;28.23;15.67;;;7.80;69.00;;;;;;4985564;28;20488;-39
2021/03/23 07:16:02;;;;;;;29.23;16.63;;;7.80;69.10;;;;;;4985048;28;20871;-40
2021/03/23 07:18:30;;;;;;;27.53;15.20;;;7.80;69.00;;;;;;4984421;28;20669;-39
2021/03/23 07:21:02;;;;;;;28.37;15.10;;;7.80;68.90;;;;;;4987275;28;20543;-39
2021/03/23 07:23:39;;;;;;;24.13;14.00;;;7.80;69.30;;;;;;4997087;28;20462;-39
2021/03/23 07:26:29;;;;;;;22.67;14.07;;;7.90;68.80;;;;;;4985075;28;20824;-39
2021/03/23 07:29:10;;;;;;;23.93;14.57;;;7.90;68.40;;;;;;4998861;28;20507;-39
2021/03/23 07:32:13;;;;;;;26.50;15.90;;;8.00;68.00;;;;;;5001651;28;20473;-39
2021/03/23 07:35:01;;;;;;;25.13;13.77;;;8.00;67.90;;;;;;4987423;28;21027;-39
2021/03/23 07:37:37;;;;;;;22.63;14.17;;;8.00;67.70;;;;;;5006190;28;20464;-39
2021/03/23 07:40:19;;;;;;;21.73;12.90;;;8.00;67.30;;;;;;4987341;28;20495;-39
2021/03/23 07:43:06;;;;;;;32.87;16.20;;;8.00;66.80;;;;;;4986512;28;20449;-39
2021/03/23 07:46:04;;;;;;;22.70;13.77;;;8.00;66.90;;;;;;5000689;28;20472;-39
2021/03/23 07:48:51;;;;;;;23.77;14.90;;;8.00;67.10;;;;;;4987642;28;20462;-39
2021/03/23 07:51:40;;;;;;;23.00;15.33;;;8.00;67.30;;;;;;4987678;28;20457;-39
2021/03/23 07:54:34;;;;;;;25.47;14.10;;;8.00;67.20;;;;;;4986802;28;20461;-39
2021/03/23 07:57:41;;;;;;;23.17;13.30;;;8.00;67.10;;;;;;4985166;28;20449;-39
2021/03/23 08:00:16;;;;;;;24.73;14.97;;;8.10;67.10;;;;;;4999531;28;20497;-39
2021/03/23 08:03:10;;;;;;;21.17;14.40;;;8.10;66.60;;;;;;4998953;28;20452;-39
2021/03/23 08:05:58;;;;;;;26.47;14.50;;;8.20;65.80;;;;;;4987974;28;20467;-40
2021/03/23 08:08:52;;;;;;;23.60;13.20;;;8.20;65.60;;;;;;5003768;28;20452;-39
2021/03/23 08:11:33;;;;;;;24.27;13.63;;;8.30;65.70;;;;;;4987152;28;20835;-39
2021/03/23 08:14:12;;;;;;;24.73;14.37;;;8.30;65.60;;;;;;4987587;28;20828;-39
2021/03/23 08:17:12;;;;;;;26.63;15.03;;;8.30;65.60;;;;;;4988919;28;21057;-39
2021/03/23 08:19:58;;;;;;;24.57;15.33;;;8.40;64.70;;;;;;4990727;28;20479;-39
2021/03/23 08:22:44;;;;;;;24.83;14.10;;;8.40;64.70;;;;;;4989846;28;20465;-39
2021/03/23 08:25:29;;;;;;;21.70;13.90;;;8.40;64.60;;;;;;4988158;28;20466;-40
2021/03/23 08:28:22;;;;;;;30.23;13.80;;;8.50;64.40;;;;;;4987011;28;21165;-39
2021/03/23 08:30:59;;;;;;;25.57;14.30;;;8.60;64.40;;;;;;4985570;28;20947;-39
2021/03/23 08:33:36;;;;;;;28.03;14.67;;;8.60;63.90;;;;;;5001965;28;20466;-39
2021/03/23 08:36:27;;;;;;;26.97;14.60;;;8.60;63.80;;;;;;4988295;28;21071;-39
2021/03/23 08:39:16;;;;;;;22.40;14.33;;;8.70;63.50;;;;;;4987666;28;20464;-39
2021/03/23 08:42:01;;;;;;;23.70;14.77;;;8.80;63.00;;;;;;4988825;28;20568;-39
2021/03/23 08:44:27;;;;;;;22.77;14.27;;;8.80;62.00;;;;;;4989723;28;20449;-39
2021/03/23 08:46:54;;;;;;;28.23;13.80;;;8.80;61.90;;;;;;4986417;28;20461;-39
2021/03/23 08:49:22;;;;;;;24.00;12.90;;;8.90;62.00;;;;;;4989208;28;20457;-39
2021/03/23 08:51:50;;;;;;;25.00;14.20;;;8.90;62.20;;;;;;5005326;28;20469;-39
2021/03/23 08:54:48;;;;;;;25.60;14.20;;;8.90;62.80;;;;;;5003995;28;20967;-39
2021/03/23 08:57:15;;;;;;;25.43;14.70;;;9.00;62.20;;;;;;5001526;28;20537;-39
2021/03/23 08:59:43;;;;;;;26.10;15.53;;;9.00;61.20;;;;;;4990709;28;20468;-39
2021/03/23 09:02:10;;;;;;;25.00;15.03;;;9.10;60.40;;;;;;4988335;28;20461;-39
2021/03/23 09:04:57;;;;;;;29.20;16.13;;;9.20;60.10;;;;;;5003230;28;20824;-39
2021/03/23 09:07:32;;;;;;;26.13;15.00;;;9.10;60.70;;;;;;4988127;28;20548;-39
2021/03/23 09:09:58;;;;;;;23.83;14.80;;;9.10;60.70;;;;;;5006367;28;20527;-39
2021/03/23 09:12:43;;;;;;;26.10;14.50;;;9.20;60.30;;;;;;4987799;28;20478;-39
2021/03/23 09:15:09;;;;;;;25.17;15.80;;;9.20;60.60;;;;;;4987473;28;20465;-40
2021/03/23 09:18:11;;;;;;;27.70;15.50;;;9.30;60.40;;;;;;5001990;28;20491;-40
2021/03/23 09:20:37;;;;;;;26.33;15.00;;;9.40;60.10;;;;;;4997627;28;20799;-40
2021/03/23 09:23:19;;;;;;;29.53;14.60;;;9.50;59.50;;;;;;4987340;28;20461;-39
2021/03/23 09:25:59;;;;;;;26.07;15.80;;;9.50;59.70;;;;;;4990076;28;20898;-40
2021/03/23 09:28:32;;;;;;;26.97;15.87;;;9.50;59.90;;;;;;4986954;28;20915;-40
2021/03/23 09:31:09;;;;;;;34.70;16.47;;;9.60;59.90;;;;;;4984566;28;20556;-40
2021/03/23 09:33:49;;;;;;;28.33;17.00;;;9.60;59.90;;;;;;5003688;28;20949;-40
2021/03/23 09:36:23;;;;;;;26.50;15.97;;;9.70;60.20;;;;;;4984094;28;20446;-39
2021/03/23 09:39:16;;;;;;;31.83;17.10;;;9.80;60.00;;;;;;4988155;28;20462;-38
2021/03/23 09:41:53;;;;;;;29.50;16.37;;;9.90;59.00;;;;;;5003448;28;20501;-39
2021/03/23 09:44:22;;;;;;;27.23;16.20;;;10.00;58.50;;;;;;4989307;28;20438;-39
2021/03/23 09:46:52;;;;;;;27.57;16.90;;;10.00;58.30;;;;;;4987320;28;20462;-39
2021/03/23 09:49:21;;;;;;;30.30;17.77;;;10.10;58.20;;;;;;5000908;28;20529;-39
2021/03/23 09:52:02;;;;;;;28.03;16.47;;;10.10;58.30;;;;;;4989195;28;20528;-39
2021/03/23 09:54:32;;;;;;;29.83;16.50;;;10.20;58.50;;;;;;4999648;28;20977;-39
2021/03/23 09:57:01;;;;;;;28.23;16.37;;;10.20;58.30;;;;;;5002344;28;20540;-39
2021/03/23 09:59:52;;;;;;;27.30;17.70;;;10.30;56.70;;;;;;4985954;28;20453;-39
2021/03/23 10:02:20;;;;;;;25.90;15.30;;;10.20;57.00;;;;;;4988211;28;20826;-39
2021/03/23 10:04:48;;;;;;;24.77;16.30;;;10.20;57.50;;;;;;5003303;28;20817;-39
2021/03/23 10:07:39;;;;;;;28.93;16.47;;;10.20;57.20;;;;;;4985903;28;20851;-39
2021/03/23 10:10:27;;;;;;;28.10;16.97;;;10.20;56.90;;;;;;4987398;28;20457;-39
2021/03/23 10:12:56;;;;;;;29.43;16.57;;;10.10;57.30;;;;;;4997559;28;20489;-39
2021/03/23 10:15:32;;;;;;;31.47;17.43;;;10.10;57.70;;;;;;4989587;28;20449;-39
2021/03/23 10:18:09;;;;;;;32.33;16.47;;;10.10;58.30;;;;;;4985002;28;20552;-39
2021/03/23 10:20:36;;;;;;;25.87;16.43;;;10.10;57.50;;;;;;5002100;28;20481;-39
2021/03/23 10:23:04;;;;;;;28.93;17.27;;;10.10;57.20;;;;;;5001992;28;21213;-39
2021/03/23 10:25:31;;;;;;;32.13;18.63;;;10.20;57.40;;;;;;4987668;28;21017;-39
2021/03/23 10:28:05;;;;;;;24.60;15.60;;;10.30;57.30;;;;;;4985414;28;20493;-39
2021/03/23 10:30:36;;;;;;;30.63;18.30;;;10.40;57.50;;;;;;4984415;28;20491;-39
2021/03/23 10:33:23;;;;;;;30.03;18.50;;;10.50;57.10;;;;;;4984683;28;20953;-39
2021/03/23 10:35:56;;;;;;;27.53;16.77;;;10.60;57.50;;;;;;4986342;28;20953;-39
2021/03/23 10:38:23;;;;;;;33.73;17.97;;;10.70;57.00;;;;;;4983960;28;20453;-39
2021/03/23 10:40:57;;;;;;;28.37;18.00;;;10.80;57.20;;;;;;4984077;28;21077;-39
2021/03/23 10:43:34;;;;;;;29.20;17.90;;;10.80;56.30;;;;;;4986430;28;20460;-40
2021/03/23 10:46:23;;;;;;;29.00;18.20;;;10.80;56.40;;;;;;4986868;28;20448;-39
2021/03/23 10:48:50;;;;;;;34.60;16.27;;;10.80;55.90;;;;;;4992244;28;20475;-41
2021/03/23 10:51:18;;;;;;;29.20;17.27;;;10.80;55.60;;;;;;4987585;28;21016;-41
2021/03/23 10:54:06;;;;;;;25.20;17.40;;;10.80;56.20;;;;;;5000540;28;20469;-41
2021/03/23 10:56:43;;;;;;;29.03;17.47;;;10.80;55.90;;;;;;4985408;28;20958;-40
2021/03/23 10:59:24;;;;;;;26.43;17.13;;;10.80;56.10;;;;;;4984848;28;21045;-41
2021/03/23 11:02:19;;;;;;;24.73;16.80;;;10.70;55.90;;;;;;4986116;28;20489;-41
2021/03/23 11:05:11;;;;;;;28.27;17.30;;;10.80;56.00;;;;;;4986535;28;20484;-41
2021/03/23 11:07:58;;;;;;;24.20;16.70;;;10.70;56.40;;;;;;4984899;28;20524;-41
2021/03/23 11:10:28;;;;;;;24.07;16.73;;;10.70;56.20;;;;;;4988404;28;21040;-41
2021/03/23 11:12:55;;;;;;;26.10;16.80;;;10.70;55.50;;;;;;4983529;28;20454;-41
2021/03/23 11:15:22;;;;;;;26.17;17.53;;;10.70;56.30;;;;;;4988715;28;20473;-40
2021/03/23 11:17:50;;;;;;;25.97;16.50;;;10.80;55.50;;;;;;4986968;28;21256;-41
2021/03/23 11:20:35;;;;;;;25.83;16.60;;;10.80;55.30;;;;;;4986894;28;20481;-41
2021/03/23 11:23:05;;;;;;;25.20;16.13;;;10.70;55.50;;;;;;4984339;28;20505;-41
2021/03/23 11:25:31;;;;;;;30.17;17.80;;;10.70;56.00;;;;;;4986477;28;20477;-41
2021/03/23 11:28:02;;;;;;;28.97;18.87;;;10.70;55.90;;;;;;4988658;28;20463;-41
2021/03/23 11:30:28;;;;;;;28.30;16.27;;;10.80;55.60;;;;;;4989831;28;20456;-41
2021/03/23 11:32:55;;;;;;;23.83;16.67;;;10.80;55.30;;;;;;4986475;28;20461;-40
2021/03/23 11:35:21;;;;;;;28.70;16.90;;;10.80;56.10;;;;;;4987360;28;20464;-40
2021/03/23 11:37:48;;;;;;;23.53;15.90;;;10.80;55.90;;;;;;4986601;28;20540;-40
2021/03/23 11:40:14;;;;;;;27.37;17.33;;;10.80;55.90;;;;;;4990051;28;20488;-41
2021/03/23 11:42:45;;;;;;;26.63;16.73;;;10.70;56.00;;;;;;4994916;28;20445;-42
2021/03/23 11:45:41;;;;;;;29.70;16.47;;;10.70;55.70;;;;;;4994787;28;20578;-40
2021/03/23 11:48:12;;;;;;;25.83;16.37;;;10.60;55.90;;;;;;4990155;28;20472;-40
2021/03/23 11:50:41;;;;;;;24.30;15.83;;;10.60;56.20;;;;;;4990466;28;20473;-41
2021/03/23 11:53:08;;;;;;;25.50;15.53;;;10.70;55.50;;;;;;4991604;28;20553;-40
2021/03/23 11:55:37;;;;;;;24.23;15.50;;;10.70;55.80;;;;;;5006090;28;20462;-40
2021/03/23 11:58:05;;;;;;;24.07;15.67;;;10.80;56.00;;;;;;4991019;28;20942;-41
2021/03/23 12:00:32;;;;;;;23.07;15.00;;;10.80;55.60;;;;;;4993677;28;20476;-40
2021/03/23 12:03:00;;;;;;;21.10;13.80;;;10.80;55.50;;;;;;5006334;28;20491;-40
2021/03/23 12:05:28;;;;;;;22.37;15.77;;;10.90;55.20;;;;;;5005183;28;20453;-39
2021/03/23 12:08:13;;;;;;;23.13;16.20;;;10.90;54.90;;;;;;4990013;28;20467;-40
2021/03/23 12:10:52;;;;;;;25.47;16.60;;;10.80;55.40;;;;;;4990614;28;20902;-40
2021/03/23 12:13:24;;;;;;;24.10;15.63;;;10.90;55.10;;;;;;4989208;28;20464;-39
2021/03/23 12:15:59;;;;;;;23.77;15.50;;;11.00;54.30;;;;;;4990870;28;20465;-42
2021/03/23 12:18:28;;;;;;;26.23;15.77;;;11.00;54.90;;;;;;5007224;28;20465;-40
2021/03/23 12:21:00;;;;;;;21.90;14.40;;;11.00;55.30;;;;;;4989766;28;20477;-40
2021/03/23 12:23:27;;;;;;;21.77;14.83;;;11.00;55.60;;;;;;4992133;28;20441;-40
2021/03/23 12:25:56;;;;;;;23.93;16.70;;;11.00;55.50;;;;;;5005120;28;20739;-40
2021/03/23 12:28:23;;;;;;;22.60;15.60;;;11.10;56.10;;;;;;5007216;28;20833;-40
2021/03/23 12:30:49;;;;;;;21.63;14.60;;;11.20;55.40;;;;;;5006341;28;20450;-40
2021/03/23 12:33:16;;;;;;;21.93;14.97;;;11.30;55.00;;;;;;4990979;28;20539;-42
2021/03/23 12:35:43;;;;;;;23.67;16.10;;;11.40;54.40;;;;;;4988822;28;20707;-40
2021/03/23 12:38:15;;;;;;;23.20;14.70;;;11.50;54.30;;;;;;4988188;28;20967;-40
2021/03/23 12:40:41;;;;;;;21.00;14.17;;;11.60;53.40;;;;;;4991028;28;20481;-40
2021/03/23 12:43:15;;;;;;;24.73;15.80;;;11.80;53.80;;;;;;4990313;28;20503;-40
2021/03/23 12:45:41;;;;;;;27.63;14.50;;;11.80;53.30;;;;;;5005544;28;20536;-40
2021/03/23 12:48:09;;;;;;;23.03;13.73;;;11.90;53.00;;;;;;4990186;28;20538;-40
2021/03/23 12:50:36;;;;;;;18.70;14.37;;;12.00;53.10;;;;;;4988789;28;20678;-40
2021/03/23 12:53:06;;;;;;;21.47;13.93;;;12.00;52.70;;;;;;5005034;28;20500;-40
2021/03/23 12:55:33;;;;;;;23.43;15.83;;;12.00;52.80;;;;;;4992282;28;20480;-40
2021/03/23 12:58:02;;;;;;;26.57;14.93;;;12.00;52.00;;;;;;4984788;28;20976;-40
2021/03/23 13:00:38;;;;;;;20.83;14.00;;;12.10;52.70;;;;;;5003256;28;20493;-40
2021/03/23 13:03:08;;;;;;;20.73;13.47;;;12.10;53.40;;;;;;4988902;28;21005;-40